Time,TemperatureF,DewpointF,PressureIn,WindDirection,WindDirectionDegrees,WindSpeedMPH,WindSpeedGustMPH,Humidity,HourlyPrecipIn,Conditions,Clouds,dailyrainin,SolarRadiationWatts/m^2,SoftwareType,DateUTC
2013-11-02 00:04:00,66.0,65.0,-100.00,SSE,162,0.0,0.0,96,0.00,,,0.00,0.000000,,2013-11-02 04:04:00,
2013-11-02 00:11:00,66.0,65.0,-100.00,SSE,157,0.0,0.0,97,0.00,,,0.00,0.000000,,2013-11-02 04:11:00,
2013-11-02 00:44:00,66.0,65.0,-100.00,SSE,157,0.0,0.0,97,0.00,,,0.00,0.000000,,2013-11-02 04:44:00,
2013-11-02 00:54:00,66.0,65.0,-100.00,SSE,157,0.0,0.0,97,0.00,,,0.00,0.000000,,2013-11-02 04:54:00,
2013-11-02 01:04:00,66.0,65.0,-100.00,SSE,157,0.0,0.0,97,0.00,,,0.00,0.000000,,2013-11-02 05:04:00,
2013-11-02 01:11:00,66.0,65.0,-100.00,SW,224,0.0,0.0,97,0.00,,,0.00,0.000000,,2013-11-02 05:11:00,
2013-11-02 01:42:00,66.0,65.0,-100.00,SW,224,0.0,0.0,97,0.00,,,0.00,0.000000,,2013-11-02 05:42:00,
2013-11-02 01:52:00,66.0,65.0,-100.00,SW,224,0.0,0.0,97,0.00,,,0.00,0.000000,,2013-11-02 05:52:00,
2013-11-02 02:02:00,66.0,65.0,-100.00,SW,224,0.0,0.0,97,0.00,,,0.00,0.000000,,2013-11-02 06:02:00,
2013-11-02 02:11:00,66.0,65.0,-100.00,SSE,165,0.0,0.0,97,0.00,,,0.00,0.000000,,2013-11-02 06:11:00,
2013-11-02 02:43:00,66.0,65.0,-100.00,SSE,165,0.0,0.0,97,0.00,,,0.00,0.000000,,2013-11-02 06:43:00,
2013-11-02 02:52:00,66.0,65.0,-100.00,SSE,165,0.0,0.0,97,0.00,,,0.00,0.000000,,2013-11-02 06:52:00,
2013-11-02 03:03:00,66.0,65.0,-100.00,SSE,165,0.0,0.0,97,0.00,,,0.00,0.000000,,2013-11-02 07:03:00,
2013-11-02 03:11:00,66.0,65.0,-100.00,ESE,112,0.0,0.0,97,0.00,,,0.00,0.000000,,2013-11-02 07:11:00,
2013-11-02 03:42:00,66.0,65.0,-100.00,ESE,112,0.0,0.0,97,0.00,,,0.00,0.000000,,2013-11-02 07:42:00,
2013-11-02 03:52:00,66.0,65.0,-100.00,ESE,112,0.0,0.0,97,0.00,,,0.00,0.000000,,2013-11-02 07:52:00,
2013-11-02 04:02:00,66.0,65.0,-100.00,ESE,112,0.0,0.0,97,0.00,,,0.00,0.000000,,2013-11-02 08:02:00,
2013-11-02 04:11:00,66.0,65.0,-100.00,ESE,123,0.0,0.0,97,0.00,,,0.00,0.000000,,2013-11-02 08:11:00,
2013-11-02 04:42:00,66.0,65.0,-100.00,ESE,123,0.0,0.0,97,0.00,,,0.00,0.000000,,2013-11-02 08:42:00,
2013-11-02 04:52:00,66.0,65.0,-100.00,ESE,123,0.0,0.0,97,0.00,,,0.00,0.000000,,2013-11-02 08:52:00,
2013-11-02 05:02:00,66.0,65.0,-100.00,ESE,123,0.0,0.0,97,0.00,,,0.00,0.000000,,2013-11-02 09:02:00,
2013-11-02 05:11:00,65.0,64.0,-100.00,SW,222,0.0,2.0,97,0.00,,,0.00,0.000000,,2013-11-02 09:11:00,
2013-11-02 05:43:00,65.0,64.0,-100.00,SW,222,0.0,2.0,97,0.00,,,0.00,0.000000,,2013-11-02 09:43:00,
2013-11-02 05:53:00,65.0,64.0,-100.00,SW,222,0.0,2.0,97,0.00,,,0.00,0.000000,,2013-11-02 09:53:00,
2013-11-02 06:03:00,65.0,64.0,-100.00,SW,222,0.0,2.0,97,0.00,,,0.00,0.000000,,2013-11-02 10:03:00,
2013-11-02 06:11:00,65.0,64.0,-100.00,SE,142,0.0,0.0,97,0.00,,,0.00,0.000000,,2013-11-02 10:11:00,
2013-11-02 06:43:00,65.0,64.0,-100.00,SE,142,0.0,0.0,97,0.00,,,0.00,0.000000,,2013-11-02 10:43:00,
2013-11-02 06:53:00,65.0,64.0,-100.00,SE,142,0.0,0.0,97,0.00,,,0.00,0.000000,,2013-11-02 10:53:00,
2013-11-02 07:02:00,65.0,64.0,-100.00,SE,142,0.0,0.0,97,0.00,,,0.00,0.000000,,2013-11-02 11:02:00,
2013-11-02 07:11:00,66.0,65.0,-100.00,SE,132,1.0,3.0,97,0.00,,,0.00,0.000000,,2013-11-02 11:11:00,
2013-11-02 07:42:00,66.0,65.0,-100.00,SE,132,1.0,3.0,97,0.00,,,0.00,0.000000,,2013-11-02 11:42:00,
2013-11-02 07:52:00,66.0,65.0,-100.00,SE,132,1.0,3.0,97,0.00,,,0.00,0.000000,,2013-11-02 11:52:00,
2013-11-02 08:02:00,66.0,65.0,-100.00,SE,132,1.0,3.0,97,0.00,,,0.00,0.000000,,2013-11-02 12:02:00,
2013-11-02 08:11:00,66.0,65.0,-100.00,NNE,27,0.0,1.0,97,0.00,,,0.00,10.000000,,2013-11-02 12:11:00,
2013-11-02 08:42:00,66.0,65.0,-100.00,NNE,27,0.0,1.0,97,0.00,,,0.00,10.000000,,2013-11-02 12:42:00,
2013-11-02 08:52:00,66.0,65.0,-100.00,NNE,27,0.0,1.0,97,0.00,,,0.00,10.000000,,2013-11-02 12:52:00,
2013-11-02 09:02:00,66.0,65.0,-100.00,NNE,27,0.0,1.0,97,0.00,,,0.00,10.000000,,2013-11-02 13:02:00,
2013-11-02 09:11:00,71.0,70.0,-100.00,SSE,152,1.0,3.0,97,0.00,,,0.00,72.000000,,2013-11-02 13:11:00,
2013-11-02 09:42:00,71.0,70.0,-100.00,SSE,152,1.0,3.0,97,0.00,,,0.00,72.000000,,2013-11-02 13:42:00,
2013-11-02 09:52:00,71.0,70.0,-100.00,SSE,152,1.0,3.0,97,0.00,,,0.00,72.000000,,2013-11-02 13:52:00,
2013-11-02 10:02:00,71.0,70.0,-100.00,SSE,152,1.0,3.0,97,0.00,,,0.00,72.000000,,2013-11-02 14:02:00,
2013-11-02 10:11:00,80.0,74.0,-100.00,SSW,208,4.0,6.0,82,0.00,,,-99.99,357.000000,,2013-11-02 14:11:00,
2013-11-02 10:42:00,80.0,74.0,-100.00,SSW,208,4.0,6.0,82,0.00,,,-99.99,357.000000,,2013-11-02 14:42:00,
2013-11-02 10:52:00,80.0,74.0,-100.00,SSW,208,4.0,6.0,82,0.00,,,-99.99,357.000000,,2013-11-02 14:52:00,
2013-11-02 11:02:00,80.0,74.0,-100.00,SSW,208,4.0,6.0,82,0.00,,,-99.99,357.000000,,2013-11-02 15:02:00,
2013-11-02 11:11:00,84.0,70.0,-100.00,South,184,6.0,11.0,64,0.00,,,0.00,481.000000,,2013-11-02 15:11:00,
2013-11-02 11:43:00,84.0,70.0,-100.00,South,184,6.0,11.0,64,0.00,,,0.00,481.000000,,2013-11-02 15:43:00,
2013-11-02 11:53:00,84.0,70.0,-100.00,South,184,6.0,11.0,64,0.00,,,0.00,481.000000,,2013-11-02 15:53:00,
2013-11-02 12:03:00,84.0,70.0,-100.00,South,184,6.0,11.0,64,0.00,,,0.00,481.000000,,2013-11-02 16:03:00,
2013-11-02 12:11:00,85.0,69.0,-100.00,SW,215,5.0,12.0,58,0.00,,,0.00,555.000000,,2013-11-02 16:11:00,
2013-11-02 12:43:00,85.0,69.0,-100.00,SW,215,5.0,12.0,58,0.00,,,0.00,555.000000,,2013-11-02 16:43:00,
2013-11-02 12:54:00,85.0,69.0,-100.00,SW,215,5.0,12.0,58,0.00,,,0.00,555.000000,,2013-11-02 16:54:00,
2013-11-02 13:03:00,85.0,69.0,-100.00,SW,215,5.0,12.0,58,0.00,,,0.00,555.000000,,2013-11-02 17:03:00,
2013-11-02 13:11:00,87.0,67.0,-100.00,SW,216,7.0,13.0,52,0.00,,,0.00,693.000000,,2013-11-02 17:11:00,
2013-11-02 13:43:00,87.0,67.0,-100.00,SW,216,7.0,13.0,52,0.00,,,0.00,693.000000,,2013-11-02 17:43:00,
2013-11-02 13:53:00,87.0,67.0,-100.00,SW,216,7.0,13.0,52,0.00,,,0.00,693.000000,,2013-11-02 17:53:00,
2013-11-02 14:03:00,87.0,67.0,-100.00,SW,216,7.0,13.0,52,0.00,,,0.00,693.000000,,2013-11-02 18:03:00,
2013-11-02 14:11:00,87.0,67.0,-100.00,WSW,242,6.0,12.0,51,0.00,,,0.00,664.000000,,2013-11-02 18:11:00,
2013-11-02 14:42:00,87.0,67.0,-100.00,WSW,242,6.0,12.0,51,0.00,,,0.00,664.000000,,2013-11-02 18:42:00,
2013-11-02 14:53:00,87.0,67.0,-100.00,WSW,242,6.0,12.0,51,0.00,,,0.00,664.000000,,2013-11-02 18:53:00,
2013-11-02 15:02:00,87.0,67.0,-100.00,WSW,242,6.0,12.0,51,0.00,,,0.00,664.000000,,2013-11-02 19:02:00,
2013-11-02 15:11:00,86.0,68.0,-100.00,SW,226,4.0,14.0,55,0.00,,,0.00,431.000000,,2013-11-02 19:11:00,
2013-11-02 15:42:00,86.0,68.0,-100.00,SW,226,4.0,14.0,55,0.00,,,0.00,431.000000,,2013-11-02 19:42:00,
2013-11-02 15:52:00,86.0,68.0,-100.00,SW,226,4.0,14.0,55,0.00,,,0.00,431.000000,,2013-11-02 19:52:00,
2013-11-02 16:02:00,86.0,68.0,-100.00,SW,226,4.0,14.0,55,0.00,,,0.00,431.000000,,2013-11-02 20:02:00,
2013-11-02 16:11:00,82.0,71.0,-100.00,NW,304,4.0,10.0,69,0.00,,,0.00,242.000000,,2013-11-02 20:11:00,
2013-11-02 16:43:00,82.0,71.0,-100.00,NW,304,4.0,10.0,69,0.00,,,0.00,242.000000,,2013-11-02 20:43:00,
2013-11-02 16:53:00,82.0,71.0,-100.00,NW,304,4.0,10.0,69,0.00,,,0.00,242.000000,,2013-11-02 20:53:00,
2013-11-02 17:02:00,82.0,71.0,-100.00,NW,304,4.0,10.0,69,0.00,,,0.00,242.000000,,2013-11-02 21:02:00,
2013-11-02 17:11:00,82.0,71.0,-100.00,NW,309,3.0,7.0,69,0.00,,,0.00,202.000000,,2013-11-02 21:11:00,
2013-11-02 17:44:00,82.0,71.0,-100.00,NW,309,3.0,7.0,69,0.00,,,0.00,202.000000,,2013-11-02 21:44:00,
2013-11-02 17:54:00,82.0,71.0,-100.00,NW,309,3.0,7.0,69,0.00,,,0.00,202.000000,,2013-11-02 21:54:00,
2013-11-02 18:03:00,82.0,71.0,-100.00,NW,309,3.0,7.0,69,0.00,,,0.00,202.000000,,2013-11-02 22:03:00,
2013-11-02 18:11:00,80.0,70.0,-100.00,SW,225,2.0,6.0,72,0.00,,,0.00,142.000000,,2013-11-02 22:11:00,
2013-11-02 18:44:00,80.0,70.0,-100.00,SW,225,2.0,6.0,72,0.00,,,0.00,142.000000,,2013-11-02 22:44:00,
2013-11-02 18:54:00,80.0,70.0,-100.00,SW,225,2.0,6.0,72,0.00,,,0.00,142.000000,,2013-11-02 22:54:00,
2013-11-02 19:02:00,80.0,70.0,-100.00,SW,225,2.0,6.0,72,0.00,,,0.00,142.000000,,2013-11-02 23:02:00,
2013-11-02 19:11:00,75.0,71.0,-100.00,WNW,297,0.0,2.0,86,0.00,,,0.00,9.000000,,2013-11-02 23:11:00,
2013-11-02 19:42:00,75.0,71.0,-100.00,WNW,297,0.0,2.0,86,0.00,,,0.00,9.000000,,2013-11-02 23:42:00,
2013-11-02 19:52:00,75.0,71.0,-100.00,WNW,297,0.0,2.0,86,0.00,,,0.00,9.000000,,2013-11-02 23:52:00,
2013-11-02 20:02:00,75.0,71.0,-100.00,WNW,297,0.0,2.0,86,0.00,,,0.00,9.000000,,2013-11-03 00:02:00,
2013-11-02 20:11:00,75.0,67.0,-100.00,NW,320,3.0,8.0,77,0.00,,,0.00,0.000000,,2013-11-03 00:11:00,
2013-11-02 20:42:00,75.0,67.0,-100.00,NW,320,3.0,8.0,77,0.00,,,0.00,0.000000,,2013-11-03 00:42:00,
2013-11-02 20:52:00,75.0,67.0,-100.00,NW,320,3.0,8.0,77,0.00,,,0.00,0.000000,,2013-11-03 00:52:00,
2013-11-02 21:02:00,75.0,67.0,-100.00,NW,320,3.0,8.0,77,0.00,,,0.00,0.000000,,2013-11-03 01:02:00,
2013-11-02 21:11:00,72.0,61.0,-100.00,NNW,346,3.0,12.0,68,0.00,,,0.00,0.000000,,2013-11-03 01:11:00,
2013-11-02 21:42:00,72.0,61.0,-100.00,NNW,346,3.0,12.0,68,0.00,,,0.00,0.000000,,2013-11-03 01:42:00,
2013-11-02 21:52:00,72.0,61.0,-100.00,NNW,346,3.0,12.0,68,0.00,,,0.00,0.000000,,2013-11-03 01:52:00,
2013-11-02 22:02:00,72.0,61.0,-100.00,NNW,346,3.0,12.0,68,0.00,,,0.00,0.000000,,2013-11-03 02:02:00,
2013-11-02 22:11:00,70.0,62.0,-100.00,NNE,20,2.0,8.0,77,0.00,,,0.00,0.000000,,2013-11-03 02:11:00,
2013-11-02 22:43:00,70.0,62.0,-100.00,NNE,20,2.0,8.0,77,0.00,,,0.00,0.000000,,2013-11-03 02:43:00,
2013-11-02 22:52:00,70.0,62.0,-100.00,NNE,20,2.0,8.0,77,0.00,,,0.00,0.000000,,2013-11-03 02:52:00,
2013-11-02 23:02:00,70.0,62.0,-100.00,NNE,20,2.0,8.0,77,0.00,,,0.00,0.000000,,2013-11-03 03:02:00,
2013-11-02 23:11:00,70.0,63.0,-100.00,North,356,3.0,6.0,79,0.00,,,0.00,0.000000,,2013-11-03 03:11:00,
2013-11-02 23:45:00,70.0,63.0,-100.00,North,356,3.0,6.0,79,0.00,,,0.00,0.000000,,2013-11-03 03:45:00,
2013-11-02 23:54:00,70.0,63.0,-100.00,North,356,3.0,6.0,79,0.00,,,0.00,0.000000,,2013-11-03 03:54:00,